createdAt,value
2019-02-10T00:00:01.765Z,82.47
2019-02-10T00:01:01.767Z,82.37
2019-02-10T00:02:01.741Z,82.26
2019-02-10T00:03:01.727Z,82.57
2019-02-10T00:04:01.718Z,82.37
2019-02-10T00:05:01.730Z,82.47
2019-02-10T00:06:01.704Z,82.82
2019-02-10T00:07:01.698Z,82.82
2019-02-10T00:08:01.675Z,83.09
2019-02-10T00:09:01.660Z,83.13
2019-02-10T00:10:01.653Z,83.33
2019-02-10T00:11:01.647Z,82.92
2019-02-10T00:12:01.651Z,83.03
2019-02-10T00:13:01.624Z,83.13
2019-02-10T00:14:01.606Z,83.13
2019-02-10T00:15:01.597Z,83.13
2019-02-10T00:16:01.599Z,83.58
2019-02-10T00:17:01.575Z,82.92
2019-02-10T00:18:01.559Z,83.03
2019-02-10T00:19:01.555Z,83.44
2019-02-10T00:20:01.540Z,83.33
2019-02-10T00:21:01.539Z,83.37
2019-02-10T00:22:01.517Z,82.92
2019-02-10T00:23:01.515Z,82.92
2019-02-10T00:24:01.497Z,82.20
2019-02-10T00:25:01.490Z,82.71
2019-02-10T00:26:01.490Z,81.58
2019-02-10T00:27:01.470Z,80.30
2019-02-10T00:28:01.447Z,80.62
2019-02-10T00:29:01.436Z,79.90
2019-02-10T00:30:01.456Z,79.90
2019-02-10T00:31:01.429Z,80.00
2019-02-10T00:32:01.405Z,79.65
2019-02-10T00:33:01.392Z,79.17
2019-02-10T00:34:01.385Z,78.52
2019-02-10T00:35:01.368Z,78.31
2019-02-10T00:36:01.370Z,78.21
2019-02-10T00:37:01.349Z,78.00
2019-02-10T00:38:01.336Z,78.31
2019-02-10T00:39:01.325Z,78.21
2019-02-10T00:40:01.319Z,77.80
2019-02-10T00:41:01.328Z,77.59
2019-02-10T00:42:01.287Z,77.35
2019-02-10T00:43:01.275Z,77.55
2019-02-10T00:44:01.268Z,77.59
2019-02-10T00:45:01.257Z,77.86
2019-02-10T00:46:01.257Z,77.04
2019-02-10T00:47:01.239Z,77.25
2019-02-10T00:48:01.233Z,77.04
2019-02-10T00:49:01.213Z,77.45
2019-02-10T00:50:01.199Z,77.86
2019-02-10T00:51:01.189Z,77.66
2019-02-10T00:52:01.191Z,77.86
2019-02-10T00:53:01.167Z,76.83
2019-02-10T00:54:01.158Z,77.45
2019-02-10T00:55:01.263Z,77.48
2019-02-10T00:56:01.132Z,77.80
2019-02-10T00:57:01.135Z,77.18
2019-02-10T00:58:01.110Z,77.35
2019-02-10T00:59:01.097Z,77.86
2019-02-10T01:00:01.096Z,77.14
2019-02-10T01:01:01.074Z,76.93
2019-02-10T01:02:01.085Z,77.38
2019-02-10T01:03:01.050Z,77.18
2019-02-10T01:04:01.043Z,76.73
2019-02-10T01:05:01.032Z,77.14
2019-02-10T01:06:01.016Z,76.83
2019-02-10T01:07:01.028Z,76.32
2019-02-10T01:08:00.998Z,76.21
2019-02-10T01:09:00.985Z,76.53
2019-02-10T01:10:00.983Z,76.11
2019-02-10T01:11:00.962Z,75.49
2019-02-10T01:12:00.976Z,75.60
2019-02-10T01:13:00.950Z,76.21
2019-02-10T01:14:00.927Z,76.73
2019-02-10T01:15:00.921Z,76.11
2019-02-10T01:16:00.906Z,76.32
2019-02-10T01:17:00.929Z,76.83
2019-02-10T01:18:00.887Z,76.73
2019-02-10T01:19:00.871Z,77.18
2019-02-10T01:20:00.862Z,77.45
2019-02-10T01:21:00.848Z,77.45
2019-02-10T01:22:00.838Z,77.38
2019-02-10T01:23:00.845Z,77.90
2019-02-10T01:24:00.819Z,77.90
2019-02-10T01:25:00.811Z,78.41
2019-02-10T01:26:00.793Z,77.69
2019-02-10T01:27:00.781Z,77.90
2019-02-10T01:28:00.782Z,78.00
2019-02-10T01:29:00.767Z,78.31
2019-02-10T01:30:00.756Z,77.80
2019-02-10T01:31:00.738Z,77.90
2019-02-10T01:32:00.728Z,77.48
2019-02-10T01:33:00.730Z,77.38
2019-02-10T01:34:00.702Z,77.55
2019-02-10T01:35:00.705Z,77.45
2019-02-10T01:36:00.682Z,77.48
2019-02-10T01:37:00.669Z,77.35
2019-02-10T01:38:00.674Z,77.55
2019-02-10T01:39:00.649Z,77.45
2019-02-10T01:40:00.638Z,77.55
2019-02-10T01:41:00.631Z,77.38
2019-02-10T01:42:00.615Z,77.66
2019-02-10T01:43:00.612Z,77.25
2019-02-10T01:44:00.591Z,78.07
2019-02-10T01:45:00.580Z,77.55
2019-02-10T01:46:00.583Z,77.55
2019-02-10T01:47:00.561Z,77.55
2019-02-10T01:48:00.558Z,77.76
2019-02-10T01:49:00.550Z,77.66
2019-02-10T01:50:00.525Z,77.76
2019-02-10T01:51:00.525Z,77.86
2019-02-10T01:52:00.504Z,77.93
2019-02-10T01:53:00.510Z,77.04
2019-02-10T01:54:00.479Z,77.00
2019-02-10T01:55:00.468Z,77.76
2019-02-10T01:56:00.457Z,76.90
2019-02-10T01:57:00.446Z,77.72
2019-02-10T01:58:00.438Z,77.86
2019-02-10T01:59:00.456Z,77.62
2019-02-10T02:00:00.428Z,77.51
2019-02-10T02:01:00.399Z,77.62
2019-02-10T02:02:00.391Z,77.45
2019-02-10T02:03:00.384Z,77.45
2019-02-10T02:04:00.383Z,77.97
2019-02-10T02:05:00.372Z,77.66
2019-02-10T02:06:00.346Z,77.97
2019-02-10T02:07:00.334Z,77.97
2019-02-10T02:08:00.324Z,78.07
2019-02-10T02:09:00.324Z,77.97
2019-02-10T02:10:00.318Z,78.07
2019-02-10T02:11:00.287Z,77.76
2019-02-10T02:12:00.276Z,78.38
2019-02-10T02:13:00.268Z,78.28
2019-02-10T02:14:00.276Z,78.28
2019-02-10T02:15:00.324Z,78.28
2019-02-10T02:16:00.230Z,78.58
2019-02-10T02:17:00.227Z,78.48
2019-02-10T02:18:00.209Z,78.58
2019-02-10T02:19:00.211Z,78.58
2019-02-10T02:20:00.230Z,78.89
2019-02-10T02:21:00.207Z,78.89
2019-02-10T02:22:00.167Z,79.51
2019-02-10T02:23:00.155Z,79.00
2019-02-10T02:24:00.168Z,78.89
2019-02-10T02:25:00.268Z,78.79
2019-02-10T02:26:00.125Z,78.79
2019-02-10T02:27:00.121Z,78.89
2019-02-10T02:28:00.101Z,78.58
2019-02-10T02:29:00.115Z,78.69
2019-02-10T02:30:00.156Z,79.20
2019-02-10T02:31:00.074Z,78.58
2019-02-10T02:32:00.053Z,78.03
2019-02-10T02:33:00.042Z,77.76
2019-02-10T02:34:00.041Z,77.62
2019-02-10T02:35:00.018Z,77.42
2019-02-10T02:36:00.020Z,77.42
2019-02-10T02:37:07.625Z,77.62
2019-02-10T02:38:00.983Z,77.72
2019-02-10T02:38:59.984Z,76.90
2019-02-10T02:39:59.962Z,77.11
2019-02-10T02:40:59.951Z,77.21
2019-02-10T02:41:59.938Z,77.21
2019-02-10T02:42:59.933Z,76.35
2019-02-10T02:43:59.939Z,76.35
2019-02-10T02:44:59.907Z,76.56
2019-02-10T02:45:59.892Z,76.04
2019-02-10T02:46:59.886Z,75.42
2019-02-10T02:47:59.883Z,75.73
2019-02-10T02:48:59.860Z,75.94
2019-02-10T02:49:59.863Z,75.32
2019-02-10T02:51:00.993Z,75.94
2019-02-10T02:51:59.827Z,76.14
2019-02-10T02:52:59.815Z,76.25
2019-02-10T02:53:59.805Z,76.35
2019-02-10T02:54:59.805Z,76.25
2019-02-10T02:55:59.781Z,75.01
2019-02-10T02:56:59.777Z,75.12
2019-02-10T02:57:59.762Z,75.32
2019-02-10T02:58:59.753Z,75.63
2019-02-10T02:59:59.747Z,75.63
2019-02-10T03:00:59.743Z,75.73
2019-02-10T03:01:59.721Z,75.22
2019-02-10T03:02:59.705Z,75.63
2019-02-10T03:03:59.744Z,75.84
2019-02-10T03:04:59.695Z,75.52
2019-02-10T03:05:59.674Z,75.32
2019-02-10T03:06:59.670Z,75.42
2019-02-10T03:07:59.654Z,75.63
2019-02-10T03:08:59.636Z,75.63
2019-02-10T03:09:59.648Z,75.18
2019-02-10T03:10:59.612Z,76.35
2019-02-10T03:11:59.601Z,75.52
2019-02-10T03:12:59.590Z,75.73
2019-02-10T03:13:59.581Z,75.22
2019-02-10T03:14:59.592Z,75.32
2019-02-10T03:15:59.562Z,75.12
2019-02-10T03:16:59.560Z,75.52
2019-02-10T03:17:59.536Z,75.12
2019-02-10T03:18:59.532Z,76.14
2019-02-10T03:19:59.579Z,76.04
2019-02-10T03:20:59.508Z,75.84
2019-02-10T03:21:59.487Z,75.84
2019-02-10T03:22:59.480Z,75.94
2019-02-10T03:23:59.478Z,75.84
2019-02-10T03:24:59.467Z,76.25
2019-02-10T03:25:59.451Z,75.52
2019-02-10T03:26:59.444Z,75.94
2019-02-10T03:27:59.433Z,76.14
2019-02-10T03:28:59.414Z,75.84
2019-02-10T03:29:59.414Z,75.42
2019-02-10T03:30:59.411Z,76.04
2019-02-10T03:31:59.383Z,76.35
2019-02-10T03:32:59.366Z,75.94
2019-02-10T03:33:59.353Z,76.14
2019-02-10T03:34:59.369Z,75.84
2019-02-10T03:35:59.345Z,75.42
2019-02-10T03:36:59.323Z,75.52
2019-02-10T03:37:59.310Z,75.73
2019-02-10T03:38:59.299Z,75.63
2019-02-10T03:39:59.306Z,75.42
2019-02-10T03:40:59.295Z,75.84
2019-02-10T03:41:59.269Z,75.94
2019-02-10T03:42:59.255Z,75.94
2019-02-10T03:43:59.242Z,75.84
2019-02-10T03:44:59.244Z,75.63
2019-02-10T03:45:59.221Z,75.94
2019-02-10T03:46:59.219Z,75.52
2019-02-10T03:47:59.200Z,75.52
2019-02-10T03:48:59.192Z,76.04
2019-02-10T03:49:59.177Z,76.14
2019-02-10T03:50:59.177Z,75.73
2019-02-10T03:51:59.159Z,75.73
2019-02-10T03:52:59.144Z,75.73
2019-02-10T03:53:59.138Z,75.94
2019-02-10T03:54:59.133Z,76.14
2019-02-10T03:55:59.122Z,75.94
2019-02-10T03:56:59.098Z,75.94
2019-02-10T03:57:59.092Z,75.94
2019-02-10T03:58:59.080Z,76.14
2019-02-10T03:59:59.064Z,76.25
2019-02-10T04:00:59.065Z,76.25
2019-02-10T04:01:59.046Z,75.63
2019-02-10T04:02:59.033Z,76.56
2019-02-10T04:03:59.020Z,75.90
2019-02-10T04:04:59.017Z,76.11
2019-02-10T04:05:59.009Z,76.01
2019-02-10T04:06:58.985Z,75.18
2019-02-10T04:07:58.972Z,76.11
2019-02-10T04:08:58.963Z,75.39
2019-02-10T04:09:58.955Z,75.59
2019-02-10T04:10:58.955Z,76.11
2019-02-10T04:11:58.933Z,76.11
2019-02-10T04:12:58.929Z,76.11
2019-02-10T04:13:58.907Z,77.14
2019-02-10T04:14:58.894Z,77.34
2019-02-10T04:15:58.901Z,77.24
2019-02-10T04:16:58.886Z,78.41
2019-02-10T04:17:58.862Z,79.54
2019-02-10T04:18:58.851Z,79.33
2019-02-10T04:19:58.841Z,79.33
2019-02-10T04:20:58.842Z,79.33
2019-02-10T04:21:58.819Z,79.54
2019-02-10T04:22:58.806Z,79.64
2019-02-10T04:23:58.793Z,80.26
2019-02-10T04:24:58.783Z,80.16
2019-02-10T04:25:58.795Z,80.26
2019-02-10T04:26:58.764Z,80.71
2019-02-10T04:27:58.750Z,80.30
2019-02-10T04:28:58.737Z,79.75
2019-02-10T04:29:58.726Z,79.88
2019-02-10T04:30:58.715Z,79.75
2019-02-10T04:31:58.718Z,80.05
2019-02-10T04:32:58.696Z,80.19
2019-02-10T04:33:58.688Z,80.19
2019-02-10T04:34:58.671Z,80.09
2019-02-10T04:35:58.661Z,80.30
2019-02-10T04:36:58.663Z,80.16
2019-02-10T04:37:58.640Z,80.05
2019-02-10T04:38:58.632Z,79.75
2019-02-10T04:39:58.623Z,79.75
2019-02-10T04:40:58.602Z,79.54
2019-02-10T04:41:58.603Z,79.54
2019-02-10T04:42:58.582Z,79.03
2019-02-10T04:43:58.577Z,79.23
2019-02-10T04:44:58.572Z,79.03
2019-02-10T04:45:58.549Z,79.44
2019-02-10T04:46:58.554Z,78.72
2019-02-10T04:47:58.535Z,78.17
2019-02-10T04:48:58.511Z,78.17
2019-02-10T04:49:58.504Z,77.55
2019-02-10T04:50:58.489Z,77.34
2019-02-10T04:51:58.495Z,77.24
2019-02-10T04:52:58.467Z,77.86
2019-02-10T04:53:58.456Z,77.03
2019-02-10T04:54:58.449Z,76.73
2019-02-10T04:55:58.439Z,77.14
2019-02-10T04:56:58.441Z,77.03
2019-02-10T04:57:58.411Z,76.01
2019-02-10T04:58:58.400Z,76.28
2019-02-10T04:59:58.389Z,76.18
2019-02-10T05:00:58.384Z,76.42
2019-02-10T05:01:58.393Z,75.90
2019-02-10T05:02:58.354Z,76.48
2019-02-10T05:03:58.358Z,76.21
2019-02-10T05:04:58.330Z,76.31
2019-02-10T05:05:58.329Z,76.90
2019-02-10T05:06:58.345Z,76.42
2019-02-10T05:07:58.300Z,76.21
2019-02-10T05:08:58.296Z,76.28
2019-02-10T05:09:58.277Z,76.69
2019-02-10T05:10:58.270Z,76.01
2019-02-10T05:11:58.266Z,75.87
2019-02-10T05:12:58.259Z,75.76
2019-02-10T05:13:58.232Z,76.18
2019-02-10T05:14:58.224Z,75.97
2019-02-10T05:15:58.216Z,76.18
2019-02-10T05:16:58.245Z,75.04
2019-02-10T05:17:58.240Z,75.67
2019-02-10T05:18:58.178Z,75.35
2019-02-10T05:19:58.163Z,75.04
2019-02-10T05:20:58.153Z,75.87
2019-02-10T05:21:58.140Z,75.87
2019-02-10T05:22:58.149Z,75.56
2019-02-10T05:24:03.428Z,75.35
2019-02-10T05:24:59.106Z,75.56
2019-02-10T05:25:58.095Z,75.25
2019-02-10T05:26:58.082Z,75.15
2019-02-10T05:27:58.088Z,75.04
2019-02-10T05:28:58.071Z,75.76
2019-02-10T05:29:58.058Z,76.07
2019-02-10T05:30:58.037Z,75.35
2019-02-10T05:31:58.027Z,76.07
2019-02-10T05:32:58.104Z,75.15
2019-02-10T05:33:58.052Z,75.35
2019-02-10T05:34:57.994Z,75.97
2019-02-10T05:35:57.983Z,75.56
2019-02-10T05:36:57.983Z,75.35
2019-02-10T05:38:04.043Z,75.56
2019-02-10T05:38:58.947Z,75.87
2019-02-10T05:39:57.948Z,75.35
2019-02-10T05:40:57.934Z,74.95
2019-02-10T05:41:57.932Z,75.25
2019-02-10T05:42:57.944Z,75.25
2019-02-10T05:43:57.892Z,75.21
2019-02-10T05:44:57.885Z,75.25
2019-02-10T05:45:57.877Z,75.35
2019-02-10T05:46:57.883Z,75.21
2019-02-10T05:47:57.866Z,75.63
2019-02-10T05:48:57.841Z,75.52
2019-02-10T05:49:57.825Z,75.42
2019-02-10T05:50:57.816Z,75.42
2019-02-10T05:51:57.806Z,75.21
2019-02-10T05:52:57.820Z,75.42
2019-02-10T05:53:57.785Z,75.52
2019-02-10T05:54:57.773Z,75.21
2019-02-10T05:55:57.774Z,76.04
2019-02-10T05:56:57.749Z,75.32
2019-02-10T05:57:57.792Z,75.52
2019-02-10T05:58:57.725Z,75.52
2019-02-10T05:59:57.713Z,75.21
2019-02-10T06:00:57.702Z,75.73
2019-02-10T06:01:57.690Z,75.21
2019-02-10T06:02:57.691Z,75.12
2019-02-10T06:03:57.675Z,75.21
2019-02-10T06:04:57.658Z,74.80
2019-02-10T06:05:57.643Z,75.21
2019-02-10T06:06:57.638Z,75.42
2019-02-10T06:07:57.639Z,75.52
2019-02-10T06:08:57.611Z,74.91
2019-02-10T06:09:57.600Z,75.32
2019-02-10T06:10:57.589Z,75.73
2019-02-10T06:11:57.579Z,75.01
2019-02-10T06:12:57.569Z,74.91
2019-02-10T06:13:57.578Z,74.70
2019-02-10T06:14:57.545Z,75.01
2019-02-10T06:15:57.531Z,75.21
2019-02-10T06:16:57.521Z,75.42
2019-02-10T06:17:57.510Z,75.12
2019-02-10T06:18:57.512Z,75.12
2019-02-10T06:19:57.494Z,75.32
2019-02-10T06:20:57.474Z,75.21
2019-02-10T06:21:57.468Z,75.21
2019-02-10T06:22:57.453Z,75.32
2019-02-10T06:23:57.458Z,75.21
2019-02-10T06:24:57.439Z,75.01
2019-02-10T06:25:57.436Z,75.42
2019-02-10T06:26:57.409Z,75.12
2019-02-10T06:27:57.401Z,75.21
2019-02-10T06:28:57.407Z,75.32
2019-02-10T06:29:57.382Z,75.42
2019-02-10T06:30:57.382Z,75.32
2019-02-10T06:31:57.355Z,75.12
2019-02-10T06:32:57.342Z,75.32
2019-02-10T06:33:57.350Z,75.21
2019-02-10T06:34:57.319Z,75.52
2019-02-10T06:35:57.307Z,75.12
2019-02-10T06:36:57.298Z,75.12
2019-02-10T06:37:57.289Z,75.12
2019-02-10T06:38:57.286Z,75.21
2019-02-10T06:39:57.286Z,75.83
2019-02-10T06:40:57.259Z,74.91
2019-02-10T06:41:57.248Z,75.21
2019-02-10T06:42:57.230Z,75.21
2019-02-10T06:43:57.222Z,75.18
2019-02-10T06:44:57.218Z,75.18
2019-02-10T06:45:57.197Z,75.01
2019-02-10T06:46:57.189Z,74.80
2019-02-10T06:47:57.814Z,75.08
2019-02-10T06:48:57.164Z,74.36
2019-02-10T06:49:57.168Z,74.77
2019-02-10T06:50:57.139Z,74.87
2019-02-10T06:51:57.130Z,74.87
2019-02-10T06:52:57.117Z,74.87
2019-02-10T06:53:57.129Z,74.46
2019-02-10T06:54:57.107Z,74.05
2019-02-10T06:55:57.090Z,74.26
2019-02-10T06:56:57.090Z,73.74
2019-02-10T06:57:57.062Z,73.85
2019-02-10T06:58:57.053Z,73.44
2019-02-10T06:59:57.050Z,72.99
2019-02-10T07:00:57.029Z,73.30
2019-02-10T07:01:57.023Z,73.10
2019-02-10T07:02:57.005Z,73.19
2019-02-10T07:03:57.011Z,73.50
2019-02-10T07:04:57.000Z,72.89
2019-02-10T07:05:56.977Z,72.99
2019-02-10T07:06:56.977Z,72.68
2019-02-10T07:07:56.987Z,72.78
2019-02-10T07:08:56.941Z,73.10
2019-02-10T07:09:56.947Z,73.40
2019-02-10T07:10:56.914Z,73.40
2019-02-10T07:11:56.906Z,73.30
2019-02-10T07:12:56.891Z,73.61
2019-02-10T07:13:56.883Z,73.64
2019-02-10T07:14:56.898Z,73.71
2019-02-10T07:15:56.859Z,73.50
2019-02-10T07:16:56.846Z,73.61
2019-02-10T07:17:56.840Z,73.61
2019-02-10T07:18:56.836Z,73.40
2019-02-10T07:19:56.814Z,73.13
2019-02-10T07:20:56.822Z,72.99
2019-02-10T07:21:56.791Z,72.78
2019-02-10T07:22:56.781Z,72.99
2019-02-10T07:23:56.769Z,72.44
2019-02-10T07:24:56.757Z,72.68
2019-02-10T07:25:56.762Z,72.55
2019-02-10T07:26:56.757Z,72.03
2019-02-10T07:27:56.729Z,71.93
2019-02-10T07:28:56.716Z,71.42
2019-02-10T07:29:56.702Z,71.28
2019-02-10T07:30:56.705Z,71.11
2019-02-10T07:31:56.690Z,71.01
2019-02-10T07:32:56.673Z,70.15
2019-02-10T07:33:58.520Z,70.05
2019-02-10T07:34:56.655Z,70.46
2019-02-10T07:35:56.648Z,70.05
2019-02-10T07:36:56.624Z,69.64
2019-02-10T07:37:56.614Z,69.64
2019-02-10T07:38:56.604Z,69.84
2019-02-10T07:39:56.592Z,69.84
2019-02-10T07:40:56.590Z,70.36
2019-02-10T07:41:56.566Z,69.61
2019-02-10T07:42:56.558Z,70.22
2019-02-10T07:43:56.555Z,69.92
2019-02-10T07:44:56.534Z,69.20
2019-02-10T07:45:56.545Z,69.81
2019-02-10T07:46:56.511Z,69.40
2019-02-10T07:47:56.514Z,69.51
2019-02-10T07:48:56.497Z,69.40
2019-02-10T07:49:56.481Z,69.06
2019-02-10T07:50:56.482Z,68.79
2019-02-10T07:51:56.457Z,68.68
2019-02-10T07:52:56.445Z,69.06
2019-02-10T07:53:56.436Z,68.55
2019-02-10T07:54:56.419Z,69.27
2019-02-10T07:55:56.425Z,69.06
2019-02-10T07:56:56.401Z,68.55
2019-02-10T07:57:56.387Z,68.86
2019-02-10T07:58:56.385Z,69.27
2019-02-10T07:59:56.366Z,68.76
2019-02-10T08:00:56.352Z,68.55
2019-02-10T08:01:56.357Z,68.99
2019-02-10T08:02:56.329Z,69.06
2019-02-10T08:03:56.333Z,68.86
2019-02-10T08:04:56.313Z,69.17
2019-02-10T08:05:56.293Z,69.20
2019-02-10T08:06:56.302Z,69.81
2019-02-10T08:07:56.273Z,69.37
2019-02-10T08:08:56.271Z,70.19
2019-02-10T08:09:56.255Z,70.19
2019-02-10T08:10:56.243Z,69.98
2019-02-10T08:11:56.259Z,70.02
2019-02-10T08:12:56.233Z,70.32
2019-02-10T08:13:56.203Z,70.94
2019-02-10T08:14:56.194Z,71.35
2019-02-10T08:15:56.186Z,71.97
2019-02-10T08:16:56.192Z,72.07
2019-02-10T08:17:56.162Z,71.97
2019-02-10T08:18:56.148Z,72.17
2019-02-10T08:19:56.138Z,72.78
2019-02-10T08:20:56.125Z,73.40
2019-02-10T08:21:56.125Z,73.91
2019-02-10T08:22:56.115Z,74.63
2019-02-10T08:23:56.112Z,73.61
2019-02-10T08:24:56.083Z,74.98
2019-02-10T08:25:56.072Z,75.69
2019-02-10T08:26:56.077Z,75.08
2019-02-10T08:27:56.050Z,76.00
2019-02-10T08:28:56.040Z,78.05
2019-02-10T08:29:56.051Z,77.58
2019-02-10T08:30:56.016Z,77.95
2019-02-10T08:31:56.012Z,78.29
2019-02-10T08:32:55.991Z,79.28
2019-02-10T08:33:57.229Z,79.22
2019-02-10T08:34:55.973Z,79.46
2019-02-10T08:35:55.955Z,78.43
2019-02-10T08:36:55.956Z,79.46
2019-02-10T08:37:55.934Z,79.97
2019-02-10T08:38:55.920Z,79.63
2019-02-10T08:39:55.915Z,80.28
2019-02-10T08:40:55.910Z,79.05
2019-02-10T08:41:55.923Z,79.77
2019-02-10T08:42:55.879Z,80.45
2019-02-10T08:43:55.865Z,80.35
2019-02-10T08:44:55.857Z,81.16
2019-02-10T08:45:55.860Z,79.63
2019-02-10T08:46:55.850Z,79.25
2019-02-10T08:47:55.828Z,80.76
2019-02-10T08:48:55.809Z,80.76
2019-02-10T08:49:55.799Z,80.24
2019-02-10T08:50:55.793Z,79.66
2019-02-10T08:51:55.812Z,79.97
2019-02-10T08:52:55.763Z,80.07
2019-02-10T08:53:55.752Z,80.04
2019-02-10T08:54:55.748Z,79.56
2019-02-10T08:55:55.745Z,80.49
2019-02-10T08:56:55.748Z,79.52
2019-02-10T08:57:55.726Z,80.18
2019-02-10T08:58:55.699Z,79.87
2019-02-10T08:59:55.687Z,79.77
2019-02-10T09:00:55.684Z,79.77
2019-02-10T09:01:55.662Z,78.64
2019-02-10T09:02:55.687Z,79.36
2019-02-10T09:03:55.646Z,79.56
2019-02-10T09:04:55.634Z,79.15
2019-02-10T09:05:55.621Z,79.66
2019-02-10T09:06:55.611Z,79.25
2019-02-10T09:07:55.608Z,78.23
2019-02-10T09:09:02.405Z,78.09
2019-02-10T09:09:56.575Z,79.32
2019-02-10T09:10:55.564Z,79.42
2019-02-10T09:11:55.549Z,78.02
2019-02-10T09:12:55.554Z,77.58
2019-02-10T09:13:55.534Z,77.98
2019-02-10T09:14:55.516Z,77.47
2019-02-10T09:15:55.506Z,78.09
2019-02-10T09:16:55.493Z,78.09
2019-02-10T09:17:55.497Z,77.78
2019-02-10T09:18:55.470Z,77.47
2019-02-10T09:19:55.463Z,77.06
2019-02-10T09:20:55.449Z,77.58
2019-02-10T09:21:55.437Z,77.17
2019-02-10T09:22:55.439Z,77.03
2019-02-10T09:23:55.425Z,77.74
2019-02-10T09:24:55.407Z,77.13
2019-02-10T09:25:55.407Z,77.23
2019-02-10T09:26:55.381Z,77.64
2019-02-10T09:27:55.398Z,77.03
2019-02-10T09:28:55.382Z,76.92
2019-02-10T09:29:55.353Z,75.90
2019-02-10T09:30:55.339Z,74.73
2019-02-10T09:31:55.331Z,75.04
2019-02-10T09:32:55.332Z,74.70
2019-02-10T09:33:55.307Z,74.60
2019-02-10T09:34:55.302Z,73.47
2019-02-10T09:35:55.287Z,73.36
2019-02-10T09:36:55.275Z,72.75
2019-02-10T09:37:55.280Z,73.03
2019-02-10T09:38:55.247Z,73.13
2019-02-10T09:39:55.236Z,72.52
2019-02-10T09:40:55.240Z,72.00
2019-02-10T09:41:55.215Z,72.61
2019-02-10T09:42:55.216Z,71.77
2019-02-10T09:43:55.197Z,71.77
2019-02-10T09:44:55.184Z,70.84
2019-02-10T09:45:55.181Z,70.43
2019-02-10T09:46:55.158Z,70.61
2019-02-10T09:47:55.173Z,70.20
2019-02-10T09:48:55.143Z,70.20
2019-02-10T09:49:55.126Z,69.55
2019-02-10T09:50:55.113Z,70.16
2019-02-10T09:51:55.104Z,69.75
2019-02-10T09:52:55.090Z,69.65
2019-02-10T09:53:55.092Z,68.84
2019-02-10T09:54:55.071Z,69.75
2019-02-10T09:55:55.055Z,69.24
2019-02-10T09:56:55.061Z,69.04
2019-02-10T09:57:55.032Z,69.04
2019-02-10T09:58:55.034Z,69.24
2019-02-10T09:59:55.010Z,69.31
2019-02-10T10:00:55.011Z,69.11
2019-02-10T10:01:54.990Z,69.01
2019-02-10T10:02:54.991Z,67.98
2019-02-10T10:03:54.977Z,67.54
2019-02-10T10:04:54.954Z,67.44
2019-02-10T10:05:54.943Z,67.24
2019-02-10T10:06:54.934Z,67.82
2019-02-10T10:07:54.938Z,67.41
2019-02-10T10:08:54.928Z,67.82
2019-02-10T10:09:54.897Z,67.61
2019-02-10T10:10:54.885Z,67.71
2019-02-10T10:11:54.875Z,67.82
2019-02-10T10:12:54.865Z,67.92
2019-02-10T10:13:54.868Z,67.82
2019-02-10T10:14:54.840Z,68.02
2019-02-10T10:15:54.877Z,67.41
2019-02-10T10:16:54.817Z,67.51
2019-02-10T10:17:54.814Z,67.51
2019-02-10T10:18:54.809Z,67.51
2019-02-10T10:19:55.023Z,67.71
2019-02-10T10:20:54.776Z,67.18
2019-02-10T10:21:54.761Z,67.10
2019-02-10T10:22:54.751Z,66.36
2019-02-10T10:23:54.748Z,66.86
2019-02-10T10:24:54.730Z,67.18
2019-02-10T10:25:54.722Z,67.68
2019-02-10T10:26:54.704Z,66.97
2019-02-10T10:27:54.697Z,67.38
2019-02-10T10:28:54.693Z,66.12
2019-02-10T10:29:54.669Z,66.02
2019-02-10T10:30:54.658Z,66.36
2019-02-10T10:31:54.648Z,66.63
2019-02-10T10:32:54.640Z,66.12
2019-02-10T10:33:54.646Z,65.92
2019-02-10T10:34:54.617Z,66.12
2019-02-10T10:35:54.604Z,66.53
2019-02-10T10:36:54.592Z,65.89
2019-02-10T10:37:54.580Z,65.68
2019-02-10T10:38:54.579Z,65.68
2019-02-10T10:39:54.561Z,65.37
2019-02-10T10:40:54.553Z,65.37
2019-02-10T10:41:54.537Z,65.34
2019-02-10T10:42:54.523Z,64.84
2019-02-10T10:43:54.516Z,65.25
2019-02-10T10:44:54.522Z,65.14
2019-02-10T10:45:54.501Z,65.34
2019-02-10T10:46:54.481Z,65.34
2019-02-10T10:47:54.471Z,63.82
2019-02-10T10:48:54.457Z,64.53
2019-02-10T10:49:54.457Z,63.61
2019-02-10T10:50:54.433Z,64.43
2019-02-10T10:51:54.424Z,65.25
2019-02-10T10:52:54.410Z,65.65
2019-02-10T10:53:54.400Z,65.65
2019-02-10T10:54:54.398Z,65.34
2019-02-10T10:55:54.384Z,65.95
2019-02-10T10:56:54.368Z,65.65
2019-02-10T10:57:54.356Z,65.95
2019-02-10T10:58:54.359Z,65.86
2019-02-10T10:59:54.339Z,65.86
2019-02-10T11:00:54.319Z,65.89
2019-02-10T11:01:54.308Z,65.95
2019-02-10T11:02:54.300Z,66.47
2019-02-10T11:03:54.300Z,66.06
2019-02-10T11:04:54.307Z,67.52
2019-02-10T11:05:54.263Z,67.29
2019-02-10T11:06:54.253Z,67.11
2019-02-10T11:07:54.239Z,67.90
2019-02-10T11:08:54.232Z,68.44
2019-02-10T11:09:54.230Z,67.72
2019-02-10T11:10:54.207Z,67.32
2019-02-10T11:11:54.195Z,68.03
2019-02-10T11:12:54.185Z,68.33
2019-02-10T11:13:54.171Z,68.23
2019-02-10T11:14:54.178Z,68.95
2019-02-10T11:15:54.150Z,69.46
2019-02-10T11:16:54.138Z,68.64
2019-02-10T11:17:54.133Z,69.05
2019-02-10T11:18:54.117Z,69.96
2019-02-10T11:19:54.124Z,69.76
2019-02-10T11:20:54.097Z,70.27
2019-02-10T11:21:54.082Z,71.09
2019-02-10T11:22:54.071Z,70.89
2019-02-10T11:23:54.059Z,70.89
2019-02-10T11:24:54.062Z,71.19
2019-02-10T11:25:54.038Z,71.73
2019-02-10T11:26:54.027Z,72.21
2019-02-10T11:27:54.016Z,72.45
2019-02-10T11:28:54.000Z,71.84
2019-02-10T11:29:54.004Z,72.55
2019-02-10T11:30:53.983Z,72.24
2019-02-10T11:31:53.973Z,73.06
2019-02-10T11:32:53.961Z,73.27
2019-02-10T11:33:53.952Z,73.16
2019-02-10T11:34:53.937Z,73.57
2019-02-10T11:35:53.940Z,73.57
2019-02-10T11:36:53.911Z,73.88
2019-02-10T11:37:53.901Z,73.67
2019-02-10T11:38:53.893Z,74.49
2019-02-10T11:39:53.881Z,74.42
2019-02-10T11:40:53.883Z,74.73
2019-02-10T11:41:53.856Z,74.52
2019-02-10T11:42:53.854Z,75.54
2019-02-10T11:43:53.831Z,75.85
2019-02-10T11:44:53.821Z,75.54
2019-02-10T11:45:53.819Z,76.26
2019-02-10T11:46:53.816Z,77.11
2019-02-10T11:47:53.786Z,76.90
2019-02-10T11:48:53.776Z,76.90
2019-02-10T11:49:53.769Z,77.01
2019-02-10T11:50:53.764Z,77.62
2019-02-10T11:51:53.741Z,77.01
2019-02-10T11:52:53.733Z,77.62
2019-02-10T11:53:53.728Z,77.62
2019-02-10T11:54:53.710Z,77.93
2019-02-10T11:55:53.707Z,78.95
2019-02-10T11:56:53.685Z,78.95
2019-02-10T11:57:53.676Z,79.05
2019-02-10T11:58:53.662Z,78.78
2019-02-10T11:59:53.651Z,78.99
2019-02-10T12:00:53.669Z,79.29
2019-02-10T12:01:53.628Z,79.50
2019-02-10T12:02:53.625Z,78.99
2019-02-10T12:03:53.608Z,79.29
2019-02-10T12:04:53.597Z,79.91
2019-02-10T12:05:53.594Z,80.83
2019-02-10T12:06:53.576Z,81.38
2019-02-10T12:07:53.561Z,81.79
2019-02-10T12:08:53.546Z,82.60
2019-02-10T12:09:53.542Z,82.95
2019-02-10T12:10:53.537Z,84.07
2019-02-10T12:11:53.515Z,84.38
2019-02-10T12:12:53.506Z,84.72
2019-02-10T12:13:53.494Z,86.05
2019-02-10T12:14:53.481Z,85.24
2019-02-10T12:15:53.483Z,86.16
2019-02-10T12:16:53.457Z,85.64
2019-02-10T12:17:53.446Z,86.20
2019-02-10T12:18:53.437Z,86.20
2019-02-10T12:19:53.440Z,86.20
2019-02-10T12:20:53.424Z,86.10
2019-02-10T12:21:53.401Z,86.61
2019-02-10T12:22:53.389Z,87.32
2019-02-10T12:23:53.382Z,87.77
2019-02-10T12:24:53.370Z,87.57
2019-02-10T12:25:53.383Z,87.63
2019-02-10T12:26:53.347Z,87.67
2019-02-10T12:27:53.334Z,87.77
2019-02-10T12:28:53.321Z,87.77
2019-02-10T12:29:53.311Z,87.57
2019-02-10T12:30:53.299Z,88.18
2019-02-10T12:31:53.302Z,88.49
2019-02-10T12:32:53.294Z,88.08
2019-02-10T12:33:53.264Z,88.08
2019-02-10T12:34:53.255Z,88.59
2019-02-10T12:35:58.171Z,89.31
2019-02-10T12:36:54.277Z,88.80
2019-02-10T12:37:53.220Z,88.70
2019-02-10T12:38:53.209Z,88.90
2019-02-10T12:39:59.680Z,89.11
2019-02-10T12:40:54.187Z,90.03
2019-02-10T12:41:53.224Z,90.23
2019-02-10T12:42:53.180Z,90.44
2019-02-10T12:43:53.156Z,89.62
2019-02-10T12:44:53.140Z,90.23
2019-02-10T12:45:53.127Z,90.23
2019-02-10T12:46:53.139Z,89.51
2019-02-10T12:47:53.114Z,90.03
2019-02-10T12:48:53.093Z,89.62
2019-02-10T12:49:53.082Z,90.13
2019-02-10T12:50:53.071Z,89.25
2019-02-10T12:51:53.071Z,89.00